createdAt,value
2017-06-15T00:01:32.066Z,12.43
2017-06-15T00:03:59.739Z,13.03
2017-06-15T00:06:27.294Z,12.97
2017-06-15T00:08:54.838Z,11.67
2017-06-15T00:11:22.412Z,14.10
2017-06-15T00:13:49.971Z,13.00
2017-06-15T00:16:17.721Z,12.50
2017-06-15T00:18:45.295Z,11.70
2017-06-15T00:21:12.837Z,11.73
2017-06-15T00:23:40.411Z,12.20
2017-06-15T00:26:07.954Z,13.27
2017-06-15T00:28:35.499Z,12.40
2017-06-15T00:31:03.091Z,13.07
2017-06-15T00:33:30.652Z,13.77
2017-06-15T00:35:58.207Z,12.57
2017-06-15T00:38:25.763Z,17.77
2017-06-15T00:40:53.429Z,12.47
2017-06-15T00:43:21.089Z,12.27
2017-06-15T00:45:48.652Z,11.83
2017-06-15T00:48:16.192Z,13.33
2017-06-15T00:50:43.747Z,13.27
2017-06-15T00:53:11.323Z,16.10
2017-06-15T00:55:38.879Z,13.37
2017-06-15T00:58:06.432Z,12.73
2017-06-15T01:00:33.999Z,12.30
2017-06-15T01:03:01.563Z,13.20
2017-06-15T01:05:29.218Z,13.80
2017-06-15T01:07:56.779Z,15.63
2017-06-15T01:10:24.321Z,12.77
2017-06-15T01:12:51.899Z,13.40
2017-06-15T01:15:19.438Z,14.57
2017-06-15T01:17:47.011Z,13.53
2017-06-15T01:20:14.572Z,15.70
2017-06-15T01:22:42.132Z,13.73
2017-06-15T01:25:09.692Z,14.07
2017-06-15T01:27:37.247Z,12.90
2017-06-15T01:30:04.802Z,14.77
2017-06-15T01:32:32.384Z,14.83
2017-06-15T01:34:59.951Z,15.23
2017-06-15T01:37:27.591Z,16.40
2017-06-15T01:39:55.147Z,17.17
2017-06-15T01:42:22.811Z,19.67
2017-06-15T01:44:50.351Z,17.37
2017-06-15T01:47:17.928Z,17.53
2017-06-15T01:49:45.484Z,16.23
2017-06-15T01:52:13.044Z,18.63
2017-06-15T01:54:40.600Z,18.07
2017-06-15T01:57:08.159Z,17.47
2017-06-15T01:59:35.697Z,17.47
2017-06-15T02:02:03.276Z,17.30
2017-06-15T02:04:30.839Z,17.77
2017-06-15T02:06:58.601Z,17.10
2017-06-15T02:09:26.161Z,16.57
2017-06-15T02:11:53.704Z,19.00
2017-06-15T02:14:21.274Z,17.70
2017-06-15T02:16:48.835Z,17.70
2017-06-15T02:19:16.494Z,18.50
2017-06-15T02:21:44.059Z,17.53
2017-06-15T02:24:11.616Z,16.33
2017-06-15T02:26:39.156Z,18.23
2017-06-15T02:29:06.732Z,18.27
2017-06-15T02:31:34.367Z,15.90
2017-06-15T02:34:01.952Z,17.03
2017-06-15T02:36:29.507Z,16.17
2017-06-15T02:38:57.073Z,16.83
2017-06-15T02:41:24.611Z,16.13
2017-06-15T02:43:52.286Z,17.03
2017-06-15T02:46:19.851Z,17.53
2017-06-15T02:48:47.403Z,17.53
2017-06-15T02:51:14.946Z,16.17
2017-06-15T02:53:42.525Z,16.77
2017-06-15T02:56:10.188Z,15.17
2017-06-15T02:58:37.743Z,16.53
2017-06-15T03:01:05.403Z,15.43
2017-06-15T03:03:32.965Z,16.10
2017-06-15T03:06:00.525Z,17.43
2017-06-15T03:08:28.061Z,15.13
2017-06-15T03:10:55.640Z,16.70
2017-06-15T03:13:23.183Z,16.63
2017-06-15T03:15:50.755Z,18.37
2017-06-15T03:18:18.315Z,16.57
2017-06-15T03:20:45.879Z,16.33
2017-06-15T03:23:13.410Z,15.87
2017-06-15T03:25:40.992Z,19.33
2017-06-15T03:28:08.551Z,16.30
2017-06-15T03:30:36.111Z,16.67
2017-06-15T03:33:03.671Z,18.50
2017-06-15T03:35:31.227Z,17.47
2017-06-15T03:37:58.787Z,16.70
2017-06-15T03:40:26.349Z,18.53
2017-06-15T03:42:53.879Z,18.70
2017-06-15T03:45:21.419Z,17.87
2017-06-15T03:47:49.715Z,16.43
2017-06-15T03:50:17.263Z,17.80
2017-06-15T03:52:44.860Z,15.97
2017-06-15T03:55:12.415Z,17.03
2017-06-15T03:57:39.976Z,17.00
2017-06-15T04:00:07.531Z,17.83
2017-06-15T04:02:35.093Z,17.07
2017-06-15T04:05:02.658Z,17.23
2017-06-15T04:07:30.195Z,16.63
2017-06-15T04:09:57.771Z,18.20
2017-06-15T04:12:25.331Z,18.60
2017-06-15T04:14:53.745Z,18.37
2017-06-15T04:17:21.379Z,18.47
2017-06-15T04:19:48.916Z,18.50
2017-06-15T04:22:18.539Z,18.60
2017-06-15T04:24:46.081Z,20.17
2017-06-15T04:27:13.634Z,21.37
2017-06-15T04:29:42.106Z,21.67
2017-06-15T04:32:09.639Z,21.40
2017-06-15T04:34:37.963Z,21.90
2017-06-15T04:37:05.523Z,22.23
2017-06-15T04:39:33.083Z,23.47
2017-06-15T04:42:00.616Z,22.60
2017-06-15T04:44:28.200Z,21.97
2017-06-15T04:46:55.759Z,21.63
2017-06-15T04:49:23.315Z,20.70
2017-06-15T04:51:50.868Z,20.80
2017-06-15T04:54:18.407Z,20.53
2017-06-15T04:56:45.997Z,20.67
2017-06-15T04:59:13.555Z,19.40
2017-06-15T05:01:41.211Z,20.57
2017-06-15T05:04:08.775Z,19.87
2017-06-15T05:06:36.336Z,18.87
2017-06-15T05:09:03.872Z,19.10
2017-06-15T05:11:31.447Z,19.00
2017-06-15T05:13:59.007Z,18.37
2017-06-15T05:16:26.554Z,18.73
2017-06-15T05:18:54.123Z,18.80
2017-06-15T05:21:21.683Z,18.47
2017-06-15T05:23:49.238Z,117.37
2017-06-15T05:26:16.803Z,22.70
2017-06-15T05:28:44.347Z,15.53
2017-06-15T05:31:11.887Z,16.57
2017-06-15T05:33:39.479Z,15.17
2017-06-15T05:36:07.039Z,14.97
2017-06-15T05:38:34.604Z,18.77
2017-06-15T05:41:02.155Z,17.03
2017-06-15T05:43:29.716Z,24.20
2017-06-15T05:45:57.260Z,15.17
2017-06-15T05:48:24.831Z,14.83
2017-06-15T05:50:52.390Z,12.83
2017-06-15T05:53:19.947Z,15.20
2017-06-15T05:55:47.511Z,14.10
2017-06-15T05:58:15.051Z,14.10
2017-06-15T06:00:42.627Z,14.93
2017-06-15T06:03:10.191Z,16.40
2017-06-15T06:05:37.731Z,13.47
2017-06-15T06:08:05.275Z,14.90
2017-06-15T06:10:32.815Z,15.60
2017-06-15T06:13:01.139Z,15.20
2017-06-15T06:15:28.695Z,13.23
2017-06-15T06:17:56.255Z,13.63
2017-06-15T06:20:23.819Z,13.10
2017-06-15T06:22:51.477Z,11.50
2017-06-15T06:25:19.039Z,12.33
2017-06-15T06:27:46.572Z,15.20
2017-06-15T06:30:14.151Z,11.83
2017-06-15T06:32:41.798Z,11.57
2017-06-15T06:35:09.341Z,13.07
2017-06-15T06:37:36.928Z,11.20
2017-06-15T06:40:04.458Z,10.60
2017-06-15T06:42:32.051Z,14.87
2017-06-15T06:44:59.608Z,9.73
2017-06-15T06:47:27.167Z,10.37
2017-06-15T06:49:54.727Z,9.27
2017-06-15T06:52:22.270Z,11.53
2017-06-15T06:54:49.815Z,8.33
2017-06-15T06:57:17.399Z,10.40
2017-06-15T06:59:44.959Z,10.13
2017-06-15T07:02:12.523Z,10.50
2017-06-15T07:04:40.075Z,10.83
2017-06-15T07:07:07.635Z,9.60
2017-06-15T07:09:35.167Z,8.43
2017-06-15T07:12:02.712Z,10.93
2017-06-15T07:14:30.327Z,5.87
2017-06-15T07:16:57.851Z,6.00
2017-06-15T07:19:25.432Z,6.33
2017-06-15T07:21:53.077Z,6.13
2017-06-15T07:24:20.659Z,5.90
2017-06-15T07:26:48.190Z,5.80
2017-06-15T07:29:15.784Z,8.87
2017-06-15T07:31:43.327Z,6.83
2017-06-15T07:34:10.859Z,40.80
2017-06-15T07:36:38.402Z,32.57
2017-06-15T07:39:06.015Z,13.13
2017-06-15T07:41:33.563Z,9.70
2017-06-15T07:44:01.121Z,5.80
2017-06-15T07:46:28.768Z,5.90
2017-06-15T07:48:56.344Z,4.33
2017-06-15T07:51:23.890Z,5.07
2017-06-15T07:53:51.455Z,5.23
2017-06-15T07:56:19.020Z,5.50
2017-06-15T07:58:46.579Z,5.30
2017-06-15T08:01:14.341Z,6.70
2017-06-15T08:03:41.899Z,4.10
2017-06-15T08:06:09.458Z,3.80
2017-06-15T08:08:36.990Z,5.27
2017-06-15T08:11:04.583Z,6.17
2017-06-15T08:13:32.235Z,12.30
2017-06-15T08:15:59.799Z,4.80
2017-06-15T08:18:27.363Z,4.77
2017-06-15T08:20:54.928Z,4.03
2017-06-15T08:23:22.479Z,4.67
2017-06-15T08:25:50.032Z,4.73
2017-06-15T08:28:17.561Z,4.27
2017-06-15T08:30:45.094Z,4.93
2017-06-15T08:33:13.423Z,4.83
2017-06-15T08:35:40.984Z,4.87
2017-06-15T08:38:08.548Z,6.77
2017-06-15T08:40:36.098Z,4.37
2017-06-15T08:43:03.631Z,7.43
2017-06-15T08:45:31.231Z,3.83
2017-06-15T08:47:58.783Z,3.77
2017-06-15T08:50:26.335Z,4.03
2017-06-15T08:52:53.894Z,17.37
2017-06-15T08:55:21.426Z,9.87
2017-06-15T08:57:48.955Z,3.80
2017-06-15T09:00:17.290Z,3.40
2017-06-15T09:02:44.848Z,3.90
2017-06-15T09:05:12.407Z,4.30
2017-06-15T09:07:39.943Z,3.40
2017-06-15T09:10:07.525Z,4.70
2017-06-15T09:12:35.058Z,3.83
2017-06-15T09:15:02.605Z,4.50
2017-06-15T09:17:30.135Z,3.60
2017-06-15T09:19:57.732Z,8.07
2017-06-15T09:22:25.315Z,5.10
2017-06-15T09:24:52.879Z,4.60
2017-06-15T09:27:20.439Z,4.10
2017-06-15T09:29:47.971Z,2.97
2017-06-15T09:32:15.555Z,4.20
2017-06-15T09:34:43.079Z,4.37
2017-06-15T09:37:10.676Z,2.87
2017-06-15T09:39:38.212Z,3.20
2017-06-15T09:42:05.791Z,3.57
2017-06-15T09:44:33.353Z,2.83
2017-06-15T09:47:00.907Z,3.33
2017-06-15T09:49:28.456Z,5.10
2017-06-15T09:51:56.023Z,3.30
2017-06-15T09:54:39.648Z,4.57
2017-06-15T09:57:07.380Z,2.87
2017-06-15T09:59:35.907Z,4.27
2017-06-15T10:02:03.658Z,4.40
2017-06-15T10:04:31.236Z,3.63
2017-06-15T10:06:59.051Z,4.10
2017-06-15T10:09:26.713Z,3.87
2017-06-15T10:11:54.319Z,5.10
2017-06-15T10:14:21.875Z,3.50
2017-06-15T10:16:49.634Z,3.70
2017-06-15T10:19:17.286Z,4.07
2017-06-15T10:21:44.859Z,3.43
2017-06-15T10:24:12.590Z,3.53
2017-06-15T10:26:40.429Z,4.03
2017-06-15T10:29:08.815Z,4.20
2017-06-15T10:31:37.239Z,4.03
2017-06-15T10:34:04.805Z,3.83
2017-06-15T10:36:32.360Z,4.03
2017-06-15T10:39:00.009Z,3.63
2017-06-15T10:41:27.685Z,3.80
2017-06-15T10:43:55.543Z,3.17
2017-06-15T10:46:23.316Z,4.03
2017-06-15T10:48:50.873Z,3.53
2017-06-15T10:51:18.474Z,3.20
2017-06-15T10:53:46.899Z,4.67
2017-06-15T10:56:15.699Z,3.80
2017-06-15T10:58:43.367Z,3.33
2017-06-15T11:01:10.923Z,7.20
2017-06-15T11:03:38.478Z,4.83
2017-06-15T11:06:06.002Z,3.80
2017-06-15T11:08:33.699Z,6.07
2017-06-15T11:11:01.272Z,6.40
2017-06-15T11:13:28.911Z,4.63
2017-06-15T11:15:56.480Z,4.10
2017-06-15T11:18:24.128Z,3.23
2017-06-15T11:20:52.675Z,4.53
2017-06-15T11:23:21.125Z,3.40
2017-06-15T11:25:48.664Z,3.63
2017-06-15T11:28:17.352Z,4.00
2017-06-15T11:30:45.035Z,3.03
2017-06-15T11:33:12.859Z,3.70
2017-06-15T11:35:41.247Z,3.87
2017-06-15T11:38:08.812Z,3.60
2017-06-15T11:40:36.683Z,3.70
2017-06-15T11:43:04.426Z,3.33
2017-06-15T11:45:31.956Z,3.50
2017-06-15T11:47:59.877Z,3.67
2017-06-15T11:50:27.422Z,3.93
2017-06-15T11:52:55.071Z,3.80
2017-06-15T11:55:22.855Z,3.50
2017-06-15T11:57:50.400Z,4.83
2017-06-15T12:00:18.058Z,3.67
2017-06-15T12:02:46.612Z,4.20
2017-06-15T12:05:14.207Z,3.30
2017-06-15T12:07:41.766Z,3.83
2017-06-15T12:10:09.299Z,2.60
2017-06-15T12:12:36.887Z,3.90
2017-06-15T12:15:04.742Z,3.70
2017-06-15T12:17:32.414Z,3.83
2017-06-15T12:19:59.979Z,3.33
2017-06-15T12:22:28.227Z,3.70
2017-06-15T12:24:55.758Z,3.90
2017-06-15T12:27:24.500Z,3.27
2017-06-15T12:29:52.059Z,5.17
2017-06-15T12:32:19.611Z,3.50
2017-06-15T12:34:47.171Z,3.10
2017-06-15T12:37:14.736Z,2.93
2017-06-15T12:39:42.890Z,3.27
2017-06-15T12:42:10.859Z,3.03
2017-06-15T12:44:38.431Z,2.83
2017-06-15T12:47:05.988Z,3.03
2017-06-15T12:49:33.551Z,2.80
2017-06-15T12:52:01.107Z,4.17
2017-06-15T12:54:28.649Z,3.17
2017-06-15T12:56:56.223Z,3.20
2017-06-15T12:59:23.755Z,3.10
2017-06-15T13:01:51.345Z,2.80
2017-06-15T13:04:18.905Z,2.80
2017-06-15T13:06:46.467Z,3.10
2017-06-15T13:09:14.007Z,2.83
2017-06-15T13:11:41.580Z,2.50
2017-06-15T13:14:09.139Z,2.70
2017-06-15T13:16:36.683Z,3.47
2017-06-15T13:19:04.207Z,2.63
2017-06-15T13:21:32.536Z,3.03
2017-06-15T13:24:00.079Z,3.00
2017-06-15T13:26:27.650Z,3.03
2017-06-15T13:28:55.218Z,3.30
2017-06-15T13:31:22.768Z,2.30
2017-06-15T13:33:50.327Z,3.33
2017-06-15T13:36:17.878Z,3.63
2017-06-15T13:38:45.444Z,2.67
2017-06-15T13:41:13.004Z,2.80
2017-06-15T13:43:40.564Z,2.70
2017-06-15T13:46:08.124Z,2.50
2017-06-15T13:48:35.679Z,2.53
2017-06-15T13:51:03.238Z,2.70
2017-06-15T13:53:30.808Z,2.40
2017-06-15T13:55:58.459Z,3.53
2017-06-15T13:58:26.023Z,2.90
2017-06-15T14:00:53.582Z,3.50
2017-06-15T14:03:21.140Z,2.10
2017-06-15T14:05:48.700Z,3.27
2017-06-15T14:08:16.256Z,2.53
2017-06-15T14:10:43.807Z,3.47
2017-06-15T14:13:11.371Z,2.93
2017-06-15T14:15:38.977Z,6.37
2017-06-15T14:18:07.311Z,2.67
2017-06-15T14:20:34.876Z,2.07
2017-06-15T14:23:02.428Z,3.00
2017-06-15T14:25:29.991Z,2.10
2017-06-15T14:27:57.520Z,2.17
2017-06-15T14:30:25.123Z,2.80
2017-06-15T14:32:52.765Z,2.17
2017-06-15T14:35:20.335Z,2.30
2017-06-15T14:37:47.885Z,2.33
2017-06-15T14:40:15.449Z,1.90
2017-06-15T14:42:42.995Z,1.97
2017-06-15T14:45:10.559Z,2.13
2017-06-15T14:47:38.123Z,1.90
2017-06-15T14:50:05.647Z,5.63
2017-06-15T14:52:33.239Z,3.20
2017-06-15T14:55:00.794Z,2.13
2017-06-15T14:57:28.357Z,2.00
2017-06-15T14:59:55.892Z,1.83
2017-06-15T15:02:23.480Z,3.10
2017-06-15T15:04:51.031Z,2.40
2017-06-15T15:07:18.563Z,2.73
2017-06-15T15:09:46.151Z,1.90
2017-06-15T15:12:13.687Z,2.30
2017-06-15T15:14:41.307Z,2.30
2017-06-15T15:17:09.646Z,2.20
2017-06-15T15:19:37.204Z,2.40
2017-06-15T15:22:04.741Z,2.77
2017-06-15T15:24:32.322Z,2.13
2017-06-15T15:26:59.883Z,3.00
2017-06-15T15:29:27.438Z,3.53
2017-06-15T15:31:54.967Z,3.90
2017-06-15T15:34:22.560Z,1.90
2017-06-15T15:36:50.091Z,1.87
2017-06-15T15:39:17.620Z,1.90
2017-06-15T15:41:45.920Z,1.73
2017-06-15T15:44:13.510Z,1.73
2017-06-15T15:46:41.060Z,18.77
2017-06-15T15:49:08.627Z,1.90
2017-06-15T15:51:36.150Z,7.90
2017-06-15T15:54:03.751Z,2.50
2017-06-15T15:56:31.314Z,3.00
2017-06-15T15:58:58.970Z,2.47
2017-06-15T16:01:26.526Z,4.83
2017-06-15T16:03:54.059Z,5.27
2017-06-15T16:06:21.649Z,3.13
2017-06-15T16:08:49.210Z,3.20
2017-06-15T16:11:16.744Z,3.20
2017-06-15T16:13:44.291Z,3.30
2017-06-15T16:16:11.819Z,3.20
2017-06-15T16:18:40.168Z,3.27
2017-06-15T16:21:07.715Z,2.77
2017-06-15T16:23:35.278Z,4.83
2017-06-15T16:26:02.838Z,3.47
2017-06-15T16:28:30.395Z,5.37
2017-06-15T16:30:57.955Z,2.90
2017-06-15T16:33:25.512Z,1.63
2017-06-15T16:35:53.047Z,1.60
2017-06-15T16:38:20.627Z,3.10
2017-06-15T16:40:48.192Z,1.80
2017-06-15T16:43:15.715Z,2.50
2017-06-15T16:45:43.243Z,3.63
2017-06-15T16:48:11.554Z,2.57
2017-06-15T16:50:39.083Z,2.77
2017-06-15T16:53:07.388Z,2.83
2017-06-15T16:55:34.979Z,3.03
2017-06-15T16:58:02.509Z,3.57
2017-06-15T17:00:30.096Z,6.57
2017-06-15T17:02:57.743Z,5.40
2017-06-15T17:05:25.315Z,5.63
2017-06-15T17:07:52.846Z,2.30
2017-06-15T17:10:20.436Z,3.00
2017-06-15T17:12:48.096Z,5.70
2017-06-15T17:15:15.660Z,2.10
2017-06-15T17:17:43.211Z,3.17
2017-06-15T17:20:10.738Z,2.30
2017-06-15T17:22:38.271Z,2.40
2017-06-15T17:25:06.614Z,4.50
2017-06-15T17:27:34.987Z,8.03
2017-06-15T17:30:02.524Z,25.33
2017-06-15T17:32:30.109Z,3.00
2017-06-15T17:34:57.658Z,22.17
2017-06-15T17:37:25.224Z,3.13
2017-06-15T17:39:52.775Z,3.40
2017-06-15T17:42:20.336Z,2.60
2017-06-15T17:44:47.895Z,3.77
2017-06-15T17:47:15.455Z,3.90
2017-06-15T17:49:42.987Z,4.00
2017-06-15T17:52:10.564Z,4.63
2017-06-15T17:54:38.105Z,3.10
2017-06-15T17:57:05.691Z,8.60
2017-06-15T17:59:33.251Z,7.47
2017-06-15T18:02:00.790Z,2.90
2017-06-15T18:04:28.391Z,2.90
2017-06-15T18:06:55.924Z,7.33
2017-06-15T18:09:23.463Z,3.00
2017-06-15T18:11:51.048Z,6.63
2017-06-15T18:14:18.603Z,6.40
2017-06-15T18:16:46.165Z,3.53
2017-06-15T18:19:13.719Z,2.10
2017-06-15T18:21:41.255Z,4.07
2017-06-15T18:24:08.851Z,2.30
2017-06-15T18:26:36.383Z,3.10
2017-06-15T18:29:03.908Z,5.47
2017-06-15T18:31:31.538Z,6.27
2017-06-15T18:33:59.183Z,3.23
2017-06-15T18:36:26.739Z,4.93
2017-06-15T18:38:54.299Z,3.07
2017-06-15T18:41:21.860Z,2.87
2017-06-15T18:43:49.418Z,4.63
2017-06-15T18:46:16.971Z,3.13
2017-06-15T18:48:44.535Z,3.23
2017-06-15T18:51:12.100Z,3.40
2017-06-15T18:53:39.655Z,7.10
2017-06-15T18:56:07.207Z,3.53
2017-06-15T18:58:34.747Z,3.00
2017-06-15T19:01:02.331Z,3.47
2017-06-15T19:03:30.285Z,5.27
2017-06-15T19:05:57.871Z,11.17
2017-06-15T19:08:25.810Z,5.23
2017-06-15T19:10:53.379Z,4.33
2017-06-15T19:13:20.915Z,22.60
2017-06-15T19:15:48.507Z,4.60
2017-06-15T19:18:16.081Z,6.10
2017-06-15T19:20:43.755Z,7.27
2017-06-15T19:23:11.302Z,7.20
2017-06-15T19:25:38.843Z,6.90
2017-06-15T19:28:06.403Z,6.10
2017-06-15T19:30:33.937Z,6.47
2017-06-15T19:33:01.912Z,5.50
2017-06-15T19:35:29.571Z,5.40
2017-06-15T19:37:57.105Z,10.30
2017-06-15T19:40:24.707Z,6.97
2017-06-15T19:42:52.265Z,4.87
2017-06-15T19:45:19.824Z,7.00
2017-06-15T19:47:47.379Z,5.50
2017-06-15T19:50:14.911Z,5.00
2017-06-15T19:52:42.500Z,4.80
2017-06-15T19:55:10.056Z,5.43
2017-06-15T19:57:37.620Z,4.70
2017-06-15T20:00:05.174Z,5.00
2017-06-15T20:02:32.707Z,4.83
2017-06-15T20:05:01.031Z,5.63
2017-06-15T20:07:28.671Z,5.43
2017-06-15T20:09:56.235Z,6.30
2017-06-15T20:12:24.083Z,5.37
2017-06-15T20:14:51.755Z,4.43
2017-06-15T20:17:19.319Z,7.20
2017-06-15T20:19:46.882Z,5.33
2017-06-15T20:22:14.717Z,5.47
2017-06-15T20:24:47.903Z,4.10
2017-06-15T20:27:15.429Z,4.70
2017-06-15T20:29:43.735Z,4.07
2017-06-15T20:32:11.263Z,5.77
2017-06-15T20:34:39.603Z,4.70
2017-06-15T20:37:07.353Z,4.87
2017-06-15T20:39:34.916Z,4.77
2017-06-15T20:42:02.905Z,5.20
2017-06-15T20:44:30.451Z,4.90
2017-06-15T20:46:58.007Z,4.40
2017-06-15T20:49:25.669Z,5.10
2017-06-15T20:51:53.234Z,6.43
2017-06-15T20:54:20.791Z,4.80
2017-06-15T20:56:48.335Z,5.43
2017-06-15T20:59:15.959Z,4.50
2017-06-15T21:01:44.291Z,4.17
2017-06-15T21:04:11.825Z,4.53
2017-06-15T21:06:39.403Z,4.53
2017-06-15T21:09:06.948Z,4.90
2017-06-15T21:11:34.611Z,4.90
2017-06-15T21:14:02.179Z,3.70
2017-06-15T21:16:29.743Z,4.27
2017-06-15T21:18:57.394Z,6.77
2017-06-15T21:21:24.919Z,8.90
2017-06-15T21:24:04.205Z,5.00
2017-06-15T21:26:32.783Z,4.00
2017-06-15T21:29:00.343Z,4.27
2017-06-15T21:31:27.885Z,5.00
2017-06-15T21:33:55.454Z,4.90
2017-06-15T21:36:23.016Z,3.80
2017-06-15T21:38:50.575Z,4.73
2017-06-15T21:41:18.131Z,4.20
2017-06-15T21:43:45.699Z,5.50
2017-06-15T21:46:13.247Z,3.70
2017-06-15T21:48:40.779Z,4.50
2017-06-15T21:51:08.304Z,5.87
2017-06-15T21:53:36.644Z,4.73
2017-06-15T21:56:04.208Z,5.60
2017-06-15T21:58:31.767Z,4.73
2017-06-15T22:00:59.301Z,5.03
2017-06-15T22:03:26.879Z,4.70
2017-06-15T22:05:54.435Z,6.10
2017-06-15T22:08:21.964Z,6.37
2017-06-15T22:10:49.555Z,7.90
2017-06-15T22:13:17.120Z,6.77
2017-06-15T22:15:44.656Z,6.17
2017-06-15T22:18:12.187Z,8.60
2017-06-15T22:20:40.479Z,7.73
2017-06-15T22:23:08.067Z,8.13
2017-06-15T22:25:35.603Z,7.43
2017-06-15T22:28:03.131Z,7.40
2017-06-15T22:30:31.531Z,6.80
2017-06-15T22:32:59.152Z,7.77
2017-06-15T22:35:26.694Z,7.63
2017-06-15T22:37:54.244Z,7.20
2017-06-15T22:40:21.839Z,7.90
2017-06-15T22:42:49.407Z,7.77
2017-06-15T22:45:17.741Z,7.80
2017-06-15T22:47:45.298Z,7.30
2017-06-15T22:50:12.857Z,7.13
2017-06-15T22:52:40.416Z,7.33
2017-06-15T22:55:07.957Z,8.60
2017-06-15T22:57:35.535Z,8.10
2017-06-15T23:00:03.097Z,8.20
2017-06-15T23:02:42.627Z,8.47
2017-06-15T23:05:10.159Z,7.70
2017-06-15T23:07:37.707Z,8.07
2017-06-15T23:10:05.311Z,9.27
2017-06-15T23:12:32.867Z,8.70
2017-06-15T23:15:00.428Z,8.77
2017-06-15T23:17:27.959Z,10.63
2017-06-15T23:19:55.543Z,10.03
2017-06-15T23:22:23.104Z,9.90
2017-06-15T23:24:50.658Z,9.97
2017-06-15T23:27:18.310Z,8.93
2017-06-15T23:29:45.881Z,8.77
2017-06-15T23:32:13.443Z,9.67
2017-06-15T23:34:40.999Z,8.27
2017-06-15T23:37:08.555Z,9.80
2017-06-15T23:39:36.115Z,9.27
2017-06-15T23:42:03.674Z,8.80
2017-06-15T23:44:31.238Z,9.50
2017-06-15T23:46:58.791Z,10.87
2017-06-15T23:49:26.352Z,9.93
2017-06-15T23:51:53.911Z,10.00
2017-06-15T23:54:21.572Z,10.37
2017-06-15T23:56:49.123Z,9.67
2017-06-15T23:59:16.642Z,9.83
